McKeesport, PA (15135)

8:36 PM EST on February 06, 2016 (GMT -0500)
White Oak, PA 15131-1531 | | Change Station
CLOSE
Current Station
Personal Weather Station
Location: White Oak, PA
Elevation: 1076 ft
Nearby Weather Stations

Elev 1076 ft 40.35 °N, 79.82 °W | Updated 4 seconds ago

Mostly Cloudy
Mostly Cloudy
35.8 °F
Feels Like 36 °F
N
1.8
Wind Variable Wind from SSW
Gusts 4.9 mph

Today
High -- | Low -- °F
--% Chance of Precip.
Yesterday
High -- | Low -- °F
Precip. -- in
Pressure 30.26 in
Visibility 10.0 miles
Clouds Clear
Windchill 36 °F
Dew Point 14 °F
Humidity 41%
Rainfall 0.00 in
Snow Depth Not available.
7:23 AM 5:43 PM
Waning Crescent, 3% visible
METAR KAGC 070053Z 25006KT 10SM CLR 03/M09 A3021 RMK AO2 SLP246 T00281094
Pressure 30.26 in
Visibility 10.0 miles
Clouds Clear
Windchill 36 °F
Dew Point 14 °F
Humidity 41%
Rainfall 0.00 in
Snow Depth Not available.
7:23 AM 5:43 PM
Waning Crescent, 3% visible
METAR KAGC 070053Z 25006KT 10SM CLR 03/M09 A3021 RMK AO2 SLP246 T00281094

10-Day Weather Forecast

Almanac

Astronomy

Feb. 06, 2016 Rise Set
Actual Time
Civil Twilight
Nautical Twilight
Astronomical Twilight
Moon
Length of Visible Light
Length of Day
Tomorrow will be .
, % of the Moon is Illuminated

Today's Extremes

State Highs State Lows

Community

WunderPhotos

Upload Photos

1,891,120 photos uploaded!

WunderBlog® & News

Nearby

Air Quality

  Air Quality AQ Index Pollutant
Not available.

Snow Depth

Station Depth Elevation

Earthquake Activity

City Distance Mag. Time & Date
Minimum magnitude displayed is 2.5.

Coastal Water Temperatures

Place Temperature

Stations

Nearby Weather Stations

Station Location Temp. Windchill Dew Point Humidity Wind Precip. Elev Updated Type
                   

Watches & Warnings

There are currently no watches in effect.